sensor_id;sensor_type;location;lat;lon;timestamp;P1;durP1;ratioP1;P2;durP2;ratioP2
20794;SDS011;28087;-33.874;151.240;2023-12-07T00:02:48;20.48;;;6.78;;
20794;SDS011;28087;-33.874;151.240;2023-12-07T00:05:57;22.20;;;6.95;;
20794;SDS011;28087;-33.874;151.240;2023-12-07T00:09:01;25.63;;;8.00;;
20794;SDS011;28087;-33.874;151.240;2023-12-07T00:12:02;20.92;;;7.65;;
20794;SDS011;28087;-33.874;151.240;2023-12-07T00:15:13;22.48;;;7.47;;
20794;SDS011;28087;-33.874;151.240;2023-12-07T00:18:23;20.67;;;7.50;;
20794;SDS011;28087;-33.874;151.240;2023-12-07T00:21:33;20.77;;;7.60;;
20794;SDS011;28087;-33.874;151.240;2023-12-07T00:24:41;21.63;;;7.43;;
20794;SDS011;28087;-33.874;151.240;2023-12-07T00:27:50;18.85;;;7.45;;
20794;SDS011;28087;-33.874;151.240;2023-12-07T00:31:01;17.77;;;7.20;;
20794;SDS011;28087;-33.874;151.240;2023-12-07T00:34:04;22.77;;;8.02;;
20794;SDS011;28087;-33.874;151.240;2023-12-07T00:37:09;22.25;;;7.68;;
20794;SDS011;28087;-33.874;151.240;2023-12-07T00:40:21;24.75;;;7.70;;
20794;SDS011;28087;-33.874;151.240;2023-12-07T00:43:32;21.27;;;8.10;;
20794;SDS011;28087;-33.874;151.240;2023-12-07T00:46:39;22.40;;;8.27;;
20794;SDS011;28087;-33.874;151.240;2023-12-07T00:49:50;18.75;;;7.53;;
20794;SDS011;28087;-33.874;151.240;2023-12-07T00:53:11;18.02;;;7.38;;
20794;SDS011;28087;-33.874;151.240;2023-12-07T00:56:20;20.30;;;7.43;;
20794;SDS011;28087;-33.874;151.240;2023-12-07T00:59:29;26.10;;;8.07;;
20794;SDS011;28087;-33.874;151.240;2023-12-07T01:02:49;24.30;;;7.85;;
20794;SDS011;28087;-33.874;151.240;2023-12-07T01:05:59;19.92;;;8.30;;
20794;SDS011;28087;-33.874;151.240;2023-12-07T01:09:12;22.25;;;7.90;;
20794;SDS011;28087;-33.874;151.240;2023-12-07T01:12:22;23.33;;;8.27;;
20794;SDS011;28087;-33.874;151.240;2023-12-07T01:15:33;24.55;;;8.20;;
20794;SDS011;28087;-33.874;151.240;2023-12-07T01:18:49;25.15;;;8.32;;
20794;SDS011;28087;-33.874;151.240;2023-12-07T01:22:00;19.23;;;7.97;;
20794;SDS011;28087;-33.874;151.240;2023-12-07T01:25:12;23.77;;;8.20;;
20794;SDS011;28087;-33.874;151.240;2023-12-07T01:28:24;17.33;;;8.65;;
20794;SDS011;28087;-33.874;151.240;2023-12-07T01:31:35;23.70;;;8.63;;
20794;SDS011;28087;-33.874;151.240;2023-12-07T01:34:48;18.80;;;8.35;;
20794;SDS011;28087;-33.874;151.240;2023-12-07T01:38:02;16.33;;;7.72;;
20794;SDS011;28087;-33.874;151.240;2023-12-07T01:41:18;20.92;;;8.27;;
20794;SDS011;28087;-33.874;151.240;2023-12-07T01:44:31;23.45;;;8.70;;
20794;SDS011;28087;-33.874;151.240;2023-12-07T01:47:45;25.20;;;8.88;;
20794;SDS011;28087;-33.874;151.240;2023-12-07T01:50:58;18.30;;;8.30;;
20794;SDS011;28087;-33.874;151.240;2023-12-07T01:54:18;23.65;;;8.70;;
20794;SDS011;28087;-33.874;151.240;2023-12-07T01:57:32;22.58;;;7.85;;
20794;SDS011;28087;-33.874;151.240;2023-12-07T02:00:47;24.92;;;8.60;;
20794;SDS011;28087;-33.874;151.240;2023-12-07T02:04:14;23.35;;;8.38;;
20794;SDS011;28087;-33.874;151.240;2023-12-07T02:07:29;20.73;;;8.93;;
20794;SDS011;28087;-33.874;151.240;2023-12-07T02:10:46;26.83;;;9.23;;
20794;SDS011;28087;-33.874;151.240;2023-12-07T02:14:04;20.70;;;7.15;;
20794;SDS011;28087;-33.874;151.240;2023-12-07T02:17:34;21.00;;;7.45;;
20794;SDS011;28087;-33.874;151.240;2023-12-07T02:21:04;19.52;;;6.03;;
20794;SDS011;28087;-33.874;151.240;2023-12-07T02:24:25;19.00;;;6.22;;
20794;SDS011;28087;-33.874;151.240;2023-12-07T02:27:47;18.58;;;6.85;;
20794;SDS011;28087;-33.874;151.240;2023-12-07T02:30:57;21.20;;;9.00;;
20794;SDS011;28087;-33.874;151.240;2023-12-07T02:34:11;23.60;;;10.32;;
20794;SDS011;28087;-33.874;151.240;2023-12-07T02:37:27;30.52;;;21.92;;
20794;SDS011;28087;-33.874;151.240;2023-12-07T02:40:44;25.52;;;12.50;;
20794;SDS011;28087;-33.874;151.240;2023-12-07T02:44:03;23.52;;;12.82;;
20794;SDS011;28087;-33.874;151.240;2023-12-07T02:47:14;28.30;;;14.18;;
20794;SDS011;28087;-33.874;151.240;2023-12-07T02:50:24;31.60;;;15.50;;
20794;SDS011;28087;-33.874;151.240;2023-12-07T02:53:41;27.73;;;15.18;;
20794;SDS011;28087;-33.874;151.240;2023-12-07T02:56:53;33.03;;;17.10;;
20794;SDS011;28087;-33.874;151.240;2023-12-07T03:00:15;31.45;;;17.77;;
20794;SDS011;28087;-33.874;151.240;2023-12-07T03:03:28;33.15;;;18.63;;
20794;SDS011;28087;-33.874;151.240;2023-12-07T03:06:43;31.77;;;20.08;;
20794;SDS011;28087;-33.874;151.240;2023-12-07T03:09:54;32.58;;;19.75;;
20794;SDS011;28087;-33.874;151.240;2023-12-07T03:13:08;34.13;;;19.90;;
20794;SDS011;28087;-33.874;151.240;2023-12-07T03:16:31;32.45;;;17.73;;
20794;SDS011;28087;-33.874;151.240;2023-12-07T03:19:46;27.90;;;16.33;;
20794;SDS011;28087;-33.874;151.240;2023-12-07T03:23:00;26.95;;;15.43;;
20794;SDS011;28087;-33.874;151.240;2023-12-07T03:26:11;29.27;;;12.82;;
20794;SDS011;28087;-33.874;151.240;2023-12-07T03:29:37;21.42;;;10.52;;
20794;SDS011;28087;-33.874;151.240;2023-12-07T03:32:58;24.15;;;8.13;;
20794;SDS011;28087;-33.874;151.240;2023-12-07T03:36:11;22.05;;;8.15;;
20794;SDS011;28087;-33.874;151.240;2023-12-07T03:39:24;19.50;;;6.55;;
20794;SDS011;28087;-33.874;151.240;2023-12-07T03:42:37;22.17;;;6.20;;
20794;SDS011;28087;-33.874;151.240;2023-12-07T03:45:45;22.88;;;5.82;;
20794;SDS011;28087;-33.874;151.240;2023-12-07T03:48:56;19.83;;;5.15;;
20794;SDS011;28087;-33.874;151.240;2023-12-07T03:52:11;18.60;;;4.72;;
20794;SDS011;28087;-33.874;151.240;2023-12-07T03:55:19;17.73;;;4.90;;
20794;SDS011;28087;-33.874;151.240;2023-12-07T03:58:32;16.88;;;4.90;;
20794;SDS011;28087;-33.874;151.240;2023-12-07T04:01:41;17.50;;;4.53;;
20794;SDS011;28087;-33.874;151.240;2023-12-07T04:04:54;18.55;;;5.07;;
20794;SDS011;28087;-33.874;151.240;2023-12-07T04:08:03;17.85;;;4.90;;
20794;SDS011;28087;-33.874;151.240;2023-12-07T04:11:12;15.80;;;4.53;;
20794;SDS011;28087;-33.874;151.240;2023-12-07T04:14:24;17.50;;;4.88;;
20794;SDS011;28087;-33.874;151.240;2023-12-07T04:17:32;16.20;;;4.07;;
20794;SDS011;28087;-33.874;151.240;2023-12-07T04:20:50;16.17;;;3.85;;
20794;SDS011;28087;-33.874;151.240;2023-12-07T04:24:01;17.77;;;4.40;;
20794;SDS011;28087;-33.874;151.240;2023-12-07T04:27:14;19.20;;;4.65;;
20794;SDS011;28087;-33.874;151.240;2023-12-07T04:30:24;19.20;;;4.90;;
20794;SDS011;28087;-33.874;151.240;2023-12-07T04:33:27;18.25;;;4.63;;
20794;SDS011;28087;-33.874;151.240;2023-12-07T04:36:31;19.30;;;4.70;;
20794;SDS011;28087;-33.874;151.240;2023-12-07T04:39:41;20.33;;;4.13;;
20794;SDS011;28087;-33.874;151.240;2023-12-07T04:42:50;19.48;;;4.65;;
20794;SDS011;28087;-33.874;151.240;2023-12-07T04:46:00;15.60;;;4.10;;
20794;SDS011;28087;-33.874;151.240;2023-12-07T04:49:08;19.15;;;4.50;;
20794;SDS011;28087;-33.874;151.240;2023-12-07T04:52:20;21.80;;;4.45;;
20794;SDS011;28087;-33.874;151.240;2023-12-07T04:55:27;18.35;;;4.47;;
20794;SDS011;28087;-33.874;151.240;2023-12-07T04:58:36;19.85;;;4.80;;
20794;SDS011;28087;-33.874;151.240;2023-12-07T05:01:43;23.70;;;4.93;;
20794;SDS011;28087;-33.874;151.240;2023-12-07T05:04:50;16.55;;;4.68;;
20794;SDS011;28087;-33.874;151.240;2023-12-07T05:07:59;18.23;;;4.10;;
20794;SDS011;28087;-33.874;151.240;2023-12-07T05:11:05;18.25;;;4.43;;
20794;SDS011;28087;-33.874;151.240;2023-12-07T05:14:11;16.77;;;4.43;;
20794;SDS011;28087;-33.874;151.240;2023-12-07T05:17:17;18.00;;;4.50;;
20794;SDS011;28087;-33.874;151.240;2023-12-07T05:20:25;18.30;;;4.65;;
20794;SDS011;28087;-33.874;151.240;2023-12-07T05:23:34;17.15;;;4.25;;
20794;SDS011;28087;-33.874;151.240;2023-12-07T05:26:41;19.45;;;4.30;;
20794;SDS011;28087;-33.874;151.240;2023-12-07T05:29:50;19.42;;;4.22;;
20794;SDS011;28087;-33.874;151.240;2023-12-07T05:32:56;22.65;;;4.55;;
20794;SDS011;28087;-33.874;151.240;2023-12-07T05:36:05;19.77;;;4.20;;
20794;SDS011;28087;-33.874;151.240;2023-12-07T05:39:12;18.35;;;4.55;;
20794;SDS011;28087;-33.874;151.240;2023-12-07T05:42:19;22.10;;;4.50;;
20794;SDS011;28087;-33.874;151.240;2023-12-07T05:45:26;17.40;;;4.03;;
20794;SDS011;28087;-33.874;151.240;2023-12-07T05:48:34;16.67;;;4.15;;
20794;SDS011;28087;-33.874;151.240;2023-12-07T05:51:45;21.42;;;4.43;;
20794;SDS011;28087;-33.874;151.240;2023-12-07T05:54:55;17.60;;;3.80;;
20794;SDS011;28087;-33.874;151.240;2023-12-07T05:58:01;18.67;;;4.10;;
20794;SDS011;28087;-33.874;151.240;2023-12-07T06:01:08;16.40;;;3.95;;
20794;SDS011;28087;-33.874;151.240;2023-12-07T06:04:14;14.30;;;3.80;;
20794;SDS011;28087;-33.874;151.240;2023-12-07T06:07:20;17.08;;;4.00;;
20794;SDS011;28087;-33.874;151.240;2023-12-07T06:10:28;18.42;;;4.47;;
20794;SDS011;28087;-33.874;151.240;2023-12-07T06:13:35;21.50;;;4.45;;
20794;SDS011;28087;-33.874;151.240;2023-12-07T06:16:41;16.02;;;4.03;;
20794;SDS011;28087;-33.874;151.240;2023-12-07T06:19:48;20.10;;;4.80;;
20794;SDS011;28087;-33.874;151.240;2023-12-07T06:22:54;20.38;;;4.07;;
20794;SDS011;28087;-33.874;151.240;2023-12-07T06:26:02;17.33;;;4.00;;
20794;SDS011;28087;-33.874;151.240;2023-12-07T06:29:09;18.10;;;4.38;;
20794;SDS011;28087;-33.874;151.240;2023-12-07T06:32:17;18.65;;;3.70;;
20794;SDS011;28087;-33.874;151.240;2023-12-07T06:35:23;20.27;;;4.10;;
20794;SDS011;28087;-33.874;151.240;2023-12-07T06:38:30;18.10;;;4.03;;
20794;SDS011;28087;-33.874;151.240;2023-12-07T06:41:38;21.50;;;4.30;;
20794;SDS011;28087;-33.874;151.240;2023-12-07T06:44:45;15.32;;;3.75;;
20794;SDS011;28087;-33.874;151.240;2023-12-07T06:47:52;21.38;;;4.22;;
20794;SDS011;28087;-33.874;151.240;2023-12-07T06:50:53;22.35;;;4.38;;
20794;SDS011;28087;-33.874;151.240;2023-12-07T06:54:00;17.15;;;4.18;;
20794;SDS011;28087;-33.874;151.240;2023-12-07T06:57:03;17.45;;;4.10;;
20794;SDS011;28087;-33.874;151.240;2023-12-07T07:00:06;21.85;;;4.20;;
20794;SDS011;28087;-33.874;151.240;2023-12-07T07:03:14;21.35;;;3.95;;
20794;SDS011;28087;-33.874;151.240;2023-12-07T07:06:22;19.85;;;3.92;;
20794;SDS011;28087;-33.874;151.240;2023-12-07T07:09:29;19.05;;;4.18;;
20794;SDS011;28087;-33.874;151.240;2023-12-07T07:12:38;22.58;;;4.72;;
20794;SDS011;28087;-33.874;151.240;2023-12-07T07:15:47;20.50;;;4.45;;
20794;SDS011;28087;-33.874;151.240;2023-12-07T07:18:56;21.30;;;4.38;;
20794;SDS011;28087;-33.874;151.240;2023-12-07T07:22:05;17.63;;;3.85;;
20794;SDS011;28087;-33.874;151.240;2023-12-07T07:25:14;17.98;;;4.20;;
20794;SDS011;28087;-33.874;151.240;2023-12-07T07:28:23;19.55;;;4.40;;
20794;SDS011;28087;-33.874;151.240;2023-12-07T07:31:32;22.65;;;5.05;;
20794;SDS011;28087;-33.874;151.240;2023-12-07T07:34:39;22.45;;;4.78;;
20794;SDS011;28087;-33.874;151.240;2023-12-07T07:37:47;17.92;;;4.25;;
20794;SDS011;28087;-33.874;151.240;2023-12-07T07:40:54;17.60;;;4.22;;
20794;SDS011;28087;-33.874;151.240;2023-12-07T07:44:02;15.38;;;4.30;;
20794;SDS011;28087;-33.874;151.240;2023-12-07T07:47:08;19.38;;;4.68;;
20794;SDS011;28087;-33.874;151.240;2023-12-07T07:50:15;18.65;;;4.85;;
20794;SDS011;28087;-33.874;151.240;2023-12-07T07:53:22;20.40;;;5.25;;
20794;SDS011;28087;-33.874;151.240;2023-12-07T07:56:28;19.08;;;4.43;;
20794;SDS011;28087;-33.874;151.240;2023-12-07T07:59:36;19.88;;;5.50;;
20794;SDS011;28087;-33.874;151.240;2023-12-07T08:02:38;17.48;;;4.97;;
20794;SDS011;28087;-33.874;151.240;2023-12-07T08:05:40;20.13;;;4.70;;
20794;SDS011;28087;-33.874;151.240;2023-12-07T08:08:46;15.63;;;4.90;;
20794;SDS011;28087;-33.874;151.240;2023-12-07T08:11:52;25.80;;;5.70;;
20794;SDS011;28087;-33.874;151.240;2023-12-07T08:15:01;19.42;;;5.28;;
20794;SDS011;28087;-33.874;151.240;2023-12-07T08:18:10;17.52;;;5.10;;
20794;SDS011;28087;-33.874;151.240;2023-12-07T08:21:20;19.52;;;5.45;;
20794;SDS011;28087;-33.874;151.240;2023-12-07T08:24:27;16.42;;;4.95;;
20794;SDS011;28087;-33.874;151.240;2023-12-07T08:27:43;19.77;;;5.38;;
20794;SDS011;28087;-33.874;151.240;2023-12-07T08:30:53;19.35;;;4.43;;
20794;SDS011;28087;-33.874;151.240;2023-12-07T08:33:58;15.82;;;4.90;;
20794;SDS011;28087;-33.874;151.240;2023-12-07T08:37:06;20.88;;;5.18;;
20794;SDS011;28087;-33.874;151.240;2023-12-07T08:40:13;20.10;;;4.85;;
20794;SDS011;28087;-33.874;151.240;2023-12-07T08:43:20;20.02;;;5.22;;
20794;SDS011;28087;-33.874;151.240;2023-12-07T08:46:30;20.75;;;4.72;;
20794;SDS011;28087;-33.874;151.240;2023-12-07T08:49:41;22.25;;;5.22;;
20794;SDS011;28087;-33.874;151.240;2023-12-07T08:52:53;18.77;;;4.80;;
20794;SDS011;28087;-33.874;151.240;2023-12-07T08:55:58;17.92;;;4.70;;
20794;SDS011;28087;-33.874;151.240;2023-12-07T08:59:04;22.23;;;5.07;;
20794;SDS011;28087;-33.874;151.240;2023-12-07T09:02:15;16.52;;;4.80;;
20794;SDS011;28087;-33.874;151.240;2023-12-07T09:05:33;24.23;;;5.88;;
20794;SDS011;28087;-33.874;151.240;2023-12-07T09:08:35;15.77;;;4.70;;
20794;SDS011;28087;-33.874;151.240;2023-12-07T09:11:36;18.00;;;4.88;;
20794;SDS011;28087;-33.874;151.240;2023-12-07T09:14:42;14.80;;;4.57;;
20794;SDS011;28087;-33.874;151.240;2023-12-07T09:17:52;19.58;;;4.80;;
20794;SDS011;28087;-33.874;151.240;2023-12-07T09:20:59;24.58;;;5.35;;
20794;SDS011;28087;-33.874;151.240;2023-12-07T09:24:06;23.27;;;5.13;;
20794;SDS011;28087;-33.874;151.240;2023-12-07T09:27:13;17.25;;;4.88;;
20794;SDS011;28087;-33.874;151.240;2023-12-07T09:30:19;14.80;;;4.22;;
20794;SDS011;28087;-33.874;151.240;2023-12-07T09:33:28;22.77;;;4.80;;
20794;SDS011;28087;-33.874;151.240;2023-12-07T09:36:35;17.88;;;4.25;;
20794;SDS011;28087;-33.874;151.240;2023-12-07T09:39:41;25.20;;;5.13;;
20794;SDS011;28087;-33.874;151.240;2023-12-07T09:42:49;24.08;;;4.95;;
20794;SDS011;28087;-33.874;151.240;2023-12-07T09:45:57;20.95;;;4.65;;
20794;SDS011;28087;-33.874;151.240;2023-12-07T09:49:06;21.67;;;4.55;;
20794;SDS011;28087;-33.874;151.240;2023-12-07T09:52:13;20.15;;;4.85;;
20794;SDS011;28087;-33.874;151.240;2023-12-07T09:55:19;20.92;;;4.72;;
20794;SDS011;28087;-33.874;151.240;2023-12-07T09:58:28;25.67;;;5.60;;
20794;SDS011;28087;-33.874;151.240;2023-12-07T10:01:35;26.10;;;5.47;;
20794;SDS011;28087;-33.874;151.240;2023-12-07T10:04:43;18.83;;;4.60;;
20794;SDS011;28087;-33.874;151.240;2023-12-07T10:07:51;19.90;;;4.45;;
20794;SDS011;28087;-33.874;151.240;2023-12-07T10:11:04;18.27;;;4.25;;
20794;SDS011;28087;-33.874;151.240;2023-12-07T10:14:05;20.38;;;4.80;;
20794;SDS011;28087;-33.874;151.240;2023-12-07T10:17:12;19.50;;;4.25;;
20794;SDS011;28087;-33.874;151.240;2023-12-07T10:20:22;17.50;;;4.53;;
20794;SDS011;28087;-33.874;151.240;2023-12-07T10:23:27;19.63;;;4.22;;
20794;SDS011;28087;-33.874;151.240;2023-12-07T10:26:34;19.90;;;4.45;;
20794;SDS011;28087;-33.874;151.240;2023-12-07T10:29:50;21.92;;;4.45;;
20794;SDS011;28087;-33.874;151.240;2023-12-07T10:32:59;25.77;;;5.15;;
20794;SDS011;28087;-33.874;151.240;2023-12-07T10:36:07;19.67;;;4.05;;
20794;SDS011;28087;-33.874;151.240;2023-12-07T10:39:16;17.65;;;4.03;;
20794;SDS011;28087;-33.874;151.240;2023-12-07T10:42:24;19.38;;;4.65;;
20794;SDS011;28087;-33.874;151.240;2023-12-07T10:45:34;25.25;;;5.18;;
20794;SDS011;28087;-33.874;151.240;2023-12-07T10:48:41;19.65;;;4.43;;
20794;SDS011;28087;-33.874;151.240;2023-12-07T10:51:54;14.10;;;3.80;;
20794;SDS011;28087;-33.874;151.240;2023-12-07T10:55:02;19.65;;;4.40;;
20794;SDS011;28087;-33.874;151.240;2023-12-07T10:58:09;19.25;;;4.53;;
20794;SDS011;28087;-33.874;151.240;2023-12-07T11:01:17;22.38;;;4.88;;
20794;SDS011;28087;-33.874;151.240;2023-12-07T11:04:24;18.30;;;4.43;;
20794;SDS011;28087;-33.874;151.240;2023-12-07T11:07:47;15.95;;;4.28;;
20794;SDS011;28087;-33.874;151.240;2023-12-07T11:11:00;18.75;;;4.00;;
20794;SDS011;28087;-33.874;151.240;2023-12-07T11:14:09;20.88;;;4.30;;
20794;SDS011;28087;-33.874;151.240;2023-12-07T11:17:17;16.77;;;3.80;;
20794;SDS011;28087;-33.874;151.240;2023-12-07T11:20:32;22.48;;;4.82;;
20794;SDS011;28087;-33.874;151.240;2023-12-07T11:23:41;22.90;;;4.22;;
20794;SDS011;28087;-33.874;151.240;2023-12-07T11:26:48;17.67;;;4.10;;
20794;SDS011;28087;-33.874;151.240;2023-12-07T11:29:57;19.98;;;3.53;;
20794;SDS011;28087;-33.874;151.240;2023-12-07T11:33:03;20.40;;;4.90;;
20794;SDS011;28087;-33.874;151.240;2023-12-07T11:36:11;24.30;;;4.55;;
20794;SDS011;28087;-33.874;151.240;2023-12-07T11:39:22;20.40;;;4.22;;
20794;SDS011;28087;-33.874;151.240;2023-12-07T11:42:32;21.27;;;4.40;;
20794;SDS011;28087;-33.874;151.240;2023-12-07T11:45:40;20.45;;;4.40;;
20794;SDS011;28087;-33.874;151.240;2023-12-07T11:48:49;21.60;;;4.40;;
20794;SDS011;28087;-33.874;151.240;2023-12-07T11:52:14;19.05;;;4.63;;
20794;SDS011;28087;-33.874;151.240;2023-12-07T11:55:24;20.58;;;4.80;;
20794;SDS011;28087;-33.874;151.240;2023-12-07T11:58:30;21.98;;;4.30;;
20794;SDS011;28087;-33.874;151.240;2023-12-07T12:01:37;21.80;;;4.60;;
20794;SDS011;28087;-33.874;151.240;2023-12-07T12:04:43;21.70;;;4.40;;
20794;SDS011;28087;-33.874;151.240;2023-12-07T12:07:52;25.58;;;4.65;;
20794;SDS011;28087;-33.874;151.240;2023-12-07T12:11:01;19.48;;;4.30;;
20794;SDS011;28087;-33.874;151.240;2023-12-07T12:14:07;22.00;;;4.43;;
20794;SDS011;28087;-33.874;151.240;2023-12-07T12:17:16;21.23;;;4.85;;
20794;SDS011;28087;-33.874;151.240;2023-12-07T12:20:17;21.35;;;4.43;;
20794;SDS011;28087;-33.874;151.240;2023-12-07T12:23:18;19.15;;;4.63;;
20794;SDS011;28087;-33.874;151.240;2023-12-07T12:26:27;22.35;;;4.85;;
20794;SDS011;28087;-33.874;151.240;2023-12-07T12:29:34;22.92;;;4.68;;
20794;SDS011;28087;-33.874;151.240;2023-12-07T12:32:44;15.00;;;3.60;;
20794;SDS011;28087;-33.874;151.240;2023-12-07T12:36:01;22.95;;;4.43;;
20794;SDS011;28087;-33.874;151.240;2023-12-07T12:39:09;26.70;;;4.80;;
20794;SDS011;28087;-33.874;151.240;2023-12-07T12:42:18;17.88;;;3.95;;
20794;SDS011;28087;-33.874;151.240;2023-12-07T12:45:24;19.25;;;4.43;;
20794;SDS011;28087;-33.874;151.240;2023-12-07T12:48:30;17.25;;;3.92;;
20794;SDS011;28087;-33.874;151.240;2023-12-07T12:51:37;21.17;;;4.10;;
20794;SDS011;28087;-33.874;151.240;2023-12-07T12:54:44;19.88;;;4.45;;
20794;SDS011;28087;-33.874;151.240;2023-12-07T12:57:54;17.88;;;4.30;;
20794;SDS011;28087;-33.874;151.240;2023-12-07T13:01:01;16.80;;;4.28;;
20794;SDS011;28087;-33.874;151.240;2023-12-07T13:04:08;17.77;;;3.95;;
20794;SDS011;28087;-33.874;151.240;2023-12-07T13:07:15;16.67;;;4.47;;
20794;SDS011;28087;-33.874;151.240;2023-12-07T13:10:22;15.55;;;4.35;;
20794;SDS011;28087;-33.874;151.240;2023-12-07T13:13:34;21.70;;;4.60;;
20794;SDS011;28087;-33.874;151.240;2023-12-07T13:16:40;20.92;;;4.32;;
20794;SDS011;28087;-33.874;151.240;2023-12-07T13:19:46;21.20;;;4.30;;
20794;SDS011;28087;-33.874;151.240;2023-12-07T13:22:54;19.75;;;3.92;;
20794;SDS011;28087;-33.874;151.240;2023-12-07T13:25:56;26.10;;;5.00;;
20794;SDS011;28087;-33.874;151.240;2023-12-07T13:28:58;20.85;;;4.35;;
20794;SDS011;28087;-33.874;151.240;2023-12-07T13:32:20;22.85;;;4.35;;
20794;SDS011;28087;-33.874;151.240;2023-12-07T13:35:28;21.52;;;4.50;;
20794;SDS011;28087;-33.874;151.240;2023-12-07T13:38:35;22.95;;;5.03;;
20794;SDS011;28087;-33.874;151.240;2023-12-07T13:41:44;21.33;;;4.30;;
20794;SDS011;28087;-33.874;151.240;2023-12-07T13:44:57;21.75;;;4.60;;
20794;SDS011;28087;-33.874;151.240;2023-12-07T13:48:05;19.15;;;4.60;;
20794;SDS011;28087;-33.874;151.240;2023-12-07T13:51:11;20.48;;;4.57;;
20794;SDS011;28087;-33.874;151.240;2023-12-07T13:54:19;21.48;;;4.40;;
20794;SDS011;28087;-33.874;151.240;2023-12-07T13:57:41;24.35;;;4.50;;
20794;SDS011;28087;-33.874;151.240;2023-12-07T14:00:50;25.58;;;4.55;;
20794;SDS011;28087;-33.874;151.240;2023-12-07T14:03:56;29.15;;;4.90;;
20794;SDS011;28087;-33.874;151.240;2023-12-07T14:07:16;21.30;;;4.55;;
20794;SDS011;28087;-33.874;151.240;2023-12-07T14:10:23;23.38;;;4.32;;
20794;SDS011;28087;-33.874;151.240;2023-12-07T14:13:31;17.80;;;4.32;;
20794;SDS011;28087;-33.874;151.240;2023-12-07T14:16:41;27.00;;;4.78;;
20794;SDS011;28087;-33.874;151.240;2023-12-07T14:19:58;22.58;;;4.60;;
20794;SDS011;28087;-33.874;151.240;2023-12-07T14:23:25;19.48;;;4.15;;
20794;SDS011;28087;-33.874;151.240;2023-12-07T14:26:42;18.88;;;4.18;;
20794;SDS011;28087;-33.874;151.240;2023-12-07T14:29:51;20.02;;;4.72;;
20794;SDS011;28087;-33.874;151.240;2023-12-07T14:33:01;20.35;;;4.57;;
20794;SDS011;28087;-33.874;151.240;2023-12-07T14:36:01;20.27;;;4.60;;
20794;SDS011;28087;-33.874;151.240;2023-12-07T14:39:02;18.25;;;4.53;;
20794;SDS011;28087;-33.874;151.240;2023-12-07T14:42:13;24.90;;;5.18;;
20794;SDS011;28087;-33.874;151.240;2023-12-07T14:45:19;22.05;;;4.43;;
20794;SDS011;28087;-33.874;151.240;2023-12-07T14:48:28;22.10;;;4.82;;
20794;SDS011;28087;-33.874;151.240;2023-12-07T14:51:34;22.90;;;4.78;;
20794;SDS011;28087;-33.874;151.240;2023-12-07T14:54:41;16.05;;;4.03;;
20794;SDS011;28087;-33.874;151.240;2023-12-07T14:57:49;21.65;;;4.50;;
20794;SDS011;28087;-33.874;151.240;2023-12-07T15:00:55;23.02;;;4.50;;
20794;SDS011;28087;-33.874;151.240;2023-12-07T15:04:03;19.73;;;4.50;;
20794;SDS011;28087;-33.874;151.240;2023-12-07T15:07:20;19.25;;;4.25;;
20794;SDS011;28087;-33.874;151.240;2023-12-07T15:10:27;21.50;;;5.03;;
20794;SDS011;28087;-33.874;151.240;2023-12-07T15:13:35;15.52;;;3.92;;
20794;SDS011;28087;-33.874;151.240;2023-12-07T15:16:42;21.25;;;4.40;;
20794;SDS011;28087;-33.874;151.240;2023-12-07T15:19:52;21.38;;;4.47;;
20794;SDS011;28087;-33.874;151.240;2023-12-07T15:23:01;20.20;;;4.53;;
20794;SDS011;28087;-33.874;151.240;2023-12-07T15:26:07;21.55;;;4.63;;
20794;SDS011;28087;-33.874;151.240;2023-12-07T15:29:13;23.00;;;5.07;;
20794;SDS011;28087;-33.874;151.240;2023-12-07T15:32:19;18.75;;;4.47;;
20794;SDS011;28087;-33.874;151.240;2023-12-07T15:35:28;20.63;;;4.55;;
20794;SDS011;28087;-33.874;151.240;2023-12-07T15:38:34;21.98;;;4.43;;
20794;SDS011;28087;-33.874;151.240;2023-12-07T15:41:41;19.30;;;5.05;;
20794;SDS011;28087;-33.874;151.240;2023-12-07T15:44:44;18.40;;;4.68;;
20794;SDS011;28087;-33.874;151.240;2023-12-07T15:47:44;18.45;;;5.05;;
20794;SDS011;28087;-33.874;151.240;2023-12-07T15:50:53;19.00;;;5.30;;
20794;SDS011;28087;-33.874;151.240;2023-12-07T15:53:59;19.90;;;5.13;;
20794;SDS011;28087;-33.874;151.240;2023-12-07T15:57:24;18.48;;;5.22;;
20794;SDS011;28087;-33.874;151.240;2023-12-07T16:00:31;23.55;;;5.20;;
20794;SDS011;28087;-33.874;151.240;2023-12-07T16:03:38;20.40;;;5.03;;
20794;SDS011;28087;-33.874;151.240;2023-12-07T16:06:47;25.90;;;6.03;;
20794;SDS011;28087;-33.874;151.240;2023-12-07T16:09:56;22.20;;;6.43;;
20794;SDS011;28087;-33.874;151.240;2023-12-07T16:13:02;17.23;;;6.10;;
20794;SDS011;28087;-33.874;151.240;2023-12-07T16:16:10;22.73;;;6.78;;
20794;SDS011;28087;-33.874;151.240;2023-12-07T16:19:19;24.48;;;6.13;;
20794;SDS011;28087;-33.874;151.240;2023-12-07T16:22:28;19.23;;;6.20;;
20794;SDS011;28087;-33.874;151.240;2023-12-07T16:25:34;22.13;;;7.00;;
20794;SDS011;28087;-33.874;151.240;2023-12-07T16:28:40;20.27;;;6.88;;
20794;SDS011;28087;-33.874;151.240;2023-12-07T16:31:46;22.90;;;7.20;;
20794;SDS011;28087;-33.874;151.240;2023-12-07T16:34:54;18.38;;;6.70;;
20794;SDS011;28087;-33.874;151.240;2023-12-07T16:38:03;21.27;;;7.20;;
20794;SDS011;28087;-33.874;151.240;2023-12-07T16:41:09;19.33;;;7.18;;
20794;SDS011;28087;-33.874;151.240;2023-12-07T16:44:15;20.52;;;7.03;;
20794;SDS011;28087;-33.874;151.240;2023-12-07T16:47:21;23.40;;;7.15;;
20794;SDS011;28087;-33.874;151.240;2023-12-07T16:50:28;21.50;;;7.47;;
20794;SDS011;28087;-33.874;151.240;2023-12-07T16:53:38;23.52;;;7.85;;
20794;SDS011;28087;-33.874;151.240;2023-12-07T16:56:44;20.80;;;7.50;;
20794;SDS011;28087;-33.874;151.240;2023-12-07T16:59:55;20.85;;;7.88;;
20794;SDS011;28087;-33.874;151.240;2023-12-07T17:03:03;23.73;;;8.45;;
20794;SDS011;28087;-33.874;151.240;2023-12-07T17:06:10;20.88;;;8.35;;
20794;SDS011;28087;-33.874;151.240;2023-12-07T17:09:20;20.05;;;8.30;;
20794;SDS011;28087;-33.874;151.240;2023-12-07T17:12:27;20.98;;;8.48;;
20794;SDS011;28087;-33.874;151.240;2023-12-07T17:15:33;25.73;;;8.88;;
20794;SDS011;28087;-33.874;151.240;2023-12-07T17:18:42;21.05;;;8.40;;
20794;SDS011;28087;-33.874;151.240;2023-12-07T17:21:50;23.05;;;8.73;;
20794;SDS011;28087;-33.874;151.240;2023-12-07T17:24:58;25.10;;;9.38;;
20794;SDS011;28087;-33.874;151.240;2023-12-07T17:28:05;22.00;;;8.45;;
20794;SDS011;28087;-33.874;151.240;2023-12-07T17:31:11;19.30;;;8.55;;
20794;SDS011;28087;-33.874;151.240;2023-12-07T17:34:19;20.75;;;8.50;;
20794;SDS011;28087;-33.874;151.240;2023-12-07T17:37:24;25.38;;;8.20;;
20794;SDS011;28087;-33.874;151.240;2023-12-07T17:40:37;23.15;;;8.70;;
20794;SDS011;28087;-33.874;151.240;2023-12-07T17:43:42;21.60;;;8.40;;
20794;SDS011;28087;-33.874;151.240;2023-12-07T17:46:50;18.40;;;8.05;;
20794;SDS011;28087;-33.874;151.240;2023-12-07T17:49:56;22.73;;;8.93;;
20794;SDS011;28087;-33.874;151.240;2023-12-07T17:53:05;27.95;;;8.60;;
20794;SDS011;28087;-33.874;151.240;2023-12-07T17:56:13;25.02;;;8.60;;